sensor_id;sensor_type;location;lat;lon;timestamp;P1;durP1;ratioP1;P2;durP2;ratioP2
47844;SDS011;33605;48.822;8.796;2023-05-17T00:01:57;5.40;;;2.27;;
47844;SDS011;33605;48.822;8.796;2023-05-17T00:04:23;2.10;;;1.90;;
47844;SDS011;33605;48.822;8.796;2023-05-17T00:06:49;3.10;;;2.23;;
47844;SDS011;33605;48.822;8.796;2023-05-17T00:09:15;2.00;;;1.80;;
47844;SDS011;33605;48.822;8.796;2023-05-17T00:11:41;2.50;;;1.63;;
47844;SDS011;33605;48.822;8.796;2023-05-17T00:14:07;2.03;;;1.83;;
47844;SDS011;33605;48.822;8.796;2023-05-17T00:16:33;4.00;;;2.40;;
47844;SDS011;33605;48.822;8.796;2023-05-17T00:18:59;5.00;;;2.30;;
47844;SDS011;33605;48.822;8.796;2023-05-17T00:21:25;5.27;;;2.50;;
47844;SDS011;33605;48.822;8.796;2023-05-17T00:23:50;4.90;;;2.90;;
47844;SDS011;33605;48.822;8.796;2023-05-17T00:26:16;10.43;;;3.33;;
47844;SDS011;33605;48.822;8.796;2023-05-17T00:28:43;6.73;;;3.50;;
47844;SDS011;33605;48.822;8.796;2023-05-17T00:31:09;6.03;;;3.53;;
47844;SDS011;33605;48.822;8.796;2023-05-17T00:33:35;6.40;;;3.50;;
47844;SDS011;33605;48.822;8.796;2023-05-17T00:36:01;9.50;;;3.87;;
47844;SDS011;33605;48.822;8.796;2023-05-17T00:38:27;7.87;;;4.40;;
47844;SDS011;33605;48.822;8.796;2023-05-17T00:40:53;10.00;;;5.10;;
47844;SDS011;33605;48.822;8.796;2023-05-17T00:43:19;13.17;;;4.97;;
47844;SDS011;33605;48.822;8.796;2023-05-17T00:45:45;12.87;;;5.47;;
47844;SDS011;33605;48.822;8.796;2023-05-17T00:48:14;6.97;;;3.87;;
47844;SDS011;33605;48.822;8.796;2023-05-17T00:50:40;14.07;;;4.27;;
47844;SDS011;33605;48.822;8.796;2023-05-17T00:53:06;5.90;;;3.30;;
47844;SDS011;33605;48.822;8.796;2023-05-17T00:55:33;8.70;;;2.83;;
47844;SDS011;33605;48.822;8.796;2023-05-17T00:57:59;6.23;;;2.70;;
47844;SDS011;33605;48.822;8.796;2023-05-17T01:00:25;4.47;;;3.20;;
47844;SDS011;33605;48.822;8.796;2023-05-17T01:02:51;11.00;;;3.10;;
47844;SDS011;33605;48.822;8.796;2023-05-17T01:05:17;4.73;;;2.53;;
47844;SDS011;33605;48.822;8.796;2023-05-17T01:07:43;6.50;;;3.13;;
47844;SDS011;33605;48.822;8.796;2023-05-17T01:10:09;2.50;;;2.03;;
47844;SDS011;33605;48.822;8.796;2023-05-17T01:12:39;3.67;;;2.33;;
47844;SDS011;33605;48.822;8.796;2023-05-17T01:15:11;6.80;;;2.97;;
47844;SDS011;33605;48.822;8.796;2023-05-17T01:26:09;8.47;;;4.30;;
47844;SDS011;33605;48.822;8.796;2023-05-17T01:28:40;10.70;;;3.63;;
47844;SDS011;33605;48.822;8.796;2023-05-17T01:31:10;7.10;;;3.53;;
47844;SDS011;33605;48.822;8.796;2023-05-17T01:33:37;7.43;;;4.33;;
47844;SDS011;33605;48.822;8.796;2023-05-17T01:36:03;7.83;;;3.40;;
47844;SDS011;33605;48.822;8.796;2023-05-17T01:38:29;6.00;;;3.10;;
47844;SDS011;33605;48.822;8.796;2023-05-17T01:40:57;4.80;;;2.60;;
47844;SDS011;33605;48.822;8.796;2023-05-17T01:44:25;2.80;;;2.60;;
47844;SDS011;33605;48.822;8.796;2023-05-17T01:46:36;2.13;;;1.93;;
47844;SDS011;33605;48.822;8.796;2023-05-17T01:49:23;3.70;;;2.20;;
47844;SDS011;33605;48.822;8.796;2023-05-17T01:52:40;2.17;;;1.80;;
47844;SDS011;33605;48.822;8.796;2023-05-17T01:55:03;2.70;;;1.57;;
47844;SDS011;33605;48.822;8.796;2023-05-17T01:57:34;6.90;;;2.30;;
47844;SDS011;33605;48.822;8.796;2023-05-17T02:00:02;3.57;;;1.90;;
47844;SDS011;33605;48.822;8.796;2023-05-17T02:02:30;4.97;;;1.90;;
47844;SDS011;33605;48.822;8.796;2023-05-17T02:04:56;5.23;;;2.13;;
47844;SDS011;33605;48.822;8.796;2023-05-17T02:07:22;2.63;;;1.80;;
47844;SDS011;33605;48.822;8.796;2023-05-17T02:09:48;2.07;;;1.87;;
47844;SDS011;33605;48.822;8.796;2023-05-17T02:12:14;2.20;;;2.00;;
47844;SDS011;33605;48.822;8.796;2023-05-17T02:14:40;3.03;;;1.60;;
47844;SDS011;33605;48.822;8.796;2023-05-17T02:17:06;3.37;;;2.23;;
47844;SDS011;33605;48.822;8.796;2023-05-17T02:19:32;2.30;;;2.07;;
47844;SDS011;33605;48.822;8.796;2023-05-17T02:21:57;4.33;;;1.90;;
47844;SDS011;33605;48.822;8.796;2023-05-17T02:24:23;3.97;;;2.00;;
47844;SDS011;33605;48.822;8.796;2023-05-17T02:26:50;5.67;;;3.73;;
47844;SDS011;33605;48.822;8.796;2023-05-17T02:29:15;3.40;;;1.90;;
47844;SDS011;33605;48.822;8.796;2023-05-17T02:31:41;2.27;;;1.60;;
47844;SDS011;33605;48.822;8.796;2023-05-17T02:34:06;9.70;;;1.83;;
47844;SDS011;33605;48.822;8.796;2023-05-17T02:36:32;3.30;;;2.07;;
47844;SDS011;33605;48.822;8.796;2023-05-17T02:38:58;2.10;;;1.80;;
47844;SDS011;33605;48.822;8.796;2023-05-17T02:41:24;2.73;;;2.13;;
47844;SDS011;33605;48.822;8.796;2023-05-17T02:43:50;3.13;;;1.57;;
47844;SDS011;33605;48.822;8.796;2023-05-17T02:46:15;5.00;;;2.33;;
47844;SDS011;33605;48.822;8.796;2023-05-17T02:48:41;4.53;;;1.80;;
47844;SDS011;33605;48.822;8.796;2023-05-17T02:51:06;1.87;;;1.50;;
47844;SDS011;33605;48.822;8.796;2023-05-17T02:53:32;4.20;;;1.73;;
47844;SDS011;33605;48.822;8.796;2023-05-17T02:55:58;3.23;;;2.10;;
47844;SDS011;33605;48.822;8.796;2023-05-17T02:58:24;2.87;;;1.77;;
47844;SDS011;33605;48.822;8.796;2023-05-17T03:00:50;7.50;;;2.70;;
47844;SDS011;33605;48.822;8.796;2023-05-17T03:03:16;2.60;;;1.63;;
47844;SDS011;33605;48.822;8.796;2023-05-17T03:05:41;6.20;;;2.13;;
47844;SDS011;33605;48.822;8.796;2023-05-17T03:08:07;6.90;;;2.10;;
47844;SDS011;33605;48.822;8.796;2023-05-17T03:10:33;2.07;;;1.73;;
47844;SDS011;33605;48.822;8.796;2023-05-17T03:12:59;2.27;;;1.80;;
47844;SDS011;33605;48.822;8.796;2023-05-17T03:15:25;2.80;;;1.60;;
47844;SDS011;33605;48.822;8.796;2023-05-17T03:17:53;2.27;;;1.60;;
47844;SDS011;33605;48.822;8.796;2023-05-17T03:20:19;3.80;;;2.13;;
47844;SDS011;33605;48.822;8.796;2023-05-17T03:22:46;3.03;;;1.93;;
47844;SDS011;33605;48.822;8.796;2023-05-17T03:25:11;7.97;;;2.20;;
47844;SDS011;33605;48.822;8.796;2023-05-17T03:27:37;2.60;;;2.40;;
47844;SDS011;33605;48.822;8.796;2023-05-17T03:30:04;4.27;;;2.10;;
47844;SDS011;33605;48.822;8.796;2023-05-17T03:32:30;3.00;;;2.27;;
47844;SDS011;33605;48.822;8.796;2023-05-17T03:34:55;7.00;;;2.10;;
47844;SDS011;33605;48.822;8.796;2023-05-17T03:37:21;9.17;;;2.27;;
47844;SDS011;33605;48.822;8.796;2023-05-17T03:39:47;3.53;;;2.07;;
47844;SDS011;33605;48.822;8.796;2023-05-17T03:42:13;6.53;;;2.50;;
47844;SDS011;33605;48.822;8.796;2023-05-17T03:44:39;7.63;;;3.53;;
47844;SDS011;33605;48.822;8.796;2023-05-17T03:47:05;9.67;;;4.80;;
47844;SDS011;33605;48.822;8.796;2023-05-17T03:49:30;6.43;;;4.80;;
47844;SDS011;33605;48.822;8.796;2023-05-17T03:51:56;38.10;;;20.80;;
47844;SDS011;33605;48.822;8.796;2023-05-17T03:54:22;65.30;;;33.83;;
47844;SDS011;33605;48.822;8.796;2023-05-17T03:56:48;73.07;;;39.67;;
47844;SDS011;33605;48.822;8.796;2023-05-17T03:59:14;48.37;;;29.20;;
47844;SDS011;33605;48.822;8.796;2023-05-17T04:01:41;32.93;;;22.20;;
47844;SDS011;33605;48.822;8.796;2023-05-17T04:04:07;13.77;;;10.13;;
47844;SDS011;33605;48.822;8.796;2023-05-17T04:06:33;9.00;;;6.07;;
47844;SDS011;33605;48.822;8.796;2023-05-17T04:08:58;5.03;;;4.10;;
47844;SDS011;33605;48.822;8.796;2023-05-17T04:11:25;4.37;;;2.73;;
47844;SDS011;33605;48.822;8.796;2023-05-17T04:13:51;2.90;;;2.47;;
47844;SDS011;33605;48.822;8.796;2023-05-17T04:16:18;8.20;;;2.40;;
47844;SDS011;33605;48.822;8.796;2023-05-17T04:18:44;2.40;;;2.10;;
47844;SDS011;33605;48.822;8.796;2023-05-17T04:21:09;4.77;;;1.90;;
47844;SDS011;33605;48.822;8.796;2023-05-17T04:23:36;2.90;;;1.90;;
47844;SDS011;33605;48.822;8.796;2023-05-17T04:26:02;2.60;;;2.10;;
47844;SDS011;33605;48.822;8.796;2023-05-17T04:28:28;7.10;;;2.27;;
47844;SDS011;33605;48.822;8.796;2023-05-17T04:30:55;3.57;;;2.33;;
47844;SDS011;33605;48.822;8.796;2023-05-17T04:33:21;1.93;;;1.73;;
47844;SDS011;33605;48.822;8.796;2023-05-17T04:35:47;4.03;;;2.10;;
47844;SDS011;33605;48.822;8.796;2023-05-17T04:38:13;5.80;;;2.60;;
47844;SDS011;33605;48.822;8.796;2023-05-17T04:40:40;3.43;;;1.90;;
47844;SDS011;33605;48.822;8.796;2023-05-17T04:43:06;2.07;;;1.80;;
47844;SDS011;33605;48.822;8.796;2023-05-17T04:45:32;5.00;;;2.17;;
47844;SDS011;33605;48.822;8.796;2023-05-17T04:47:58;1.80;;;1.70;;
47844;SDS011;33605;48.822;8.796;2023-05-17T04:50:24;2.13;;;1.90;;
47844;SDS011;33605;48.822;8.796;2023-05-17T04:52:50;2.00;;;1.80;;
47844;SDS011;33605;48.822;8.796;2023-05-17T04:55:16;3.30;;;1.80;;
47844;SDS011;33605;48.822;8.796;2023-05-17T04:57:42;9.30;;;2.90;;
47844;SDS011;33605;48.822;8.796;2023-05-17T05:00:08;4.00;;;1.93;;
47844;SDS011;33605;48.822;8.796;2023-05-17T05:02:34;3.03;;;2.00;;
47844;SDS011;33605;48.822;8.796;2023-05-17T05:05:00;1.80;;;1.70;;
47844;SDS011;33605;48.822;8.796;2023-05-17T05:07:27;3.33;;;2.13;;
47844;SDS011;33605;48.822;8.796;2023-05-17T05:09:53;5.90;;;2.10;;
47844;SDS011;33605;48.822;8.796;2023-05-17T05:12:18;5.97;;;2.07;;
47844;SDS011;33605;48.822;8.796;2023-05-17T05:14:44;2.60;;;1.90;;
47844;SDS011;33605;48.822;8.796;2023-05-17T05:17:09;4.70;;;2.03;;
47844;SDS011;33605;48.822;8.796;2023-05-17T05:19:35;3.10;;;2.20;;
47844;SDS011;33605;48.822;8.796;2023-05-17T05:22:01;5.07;;;2.10;;
47844;SDS011;33605;48.822;8.796;2023-05-17T05:24:26;5.90;;;1.90;;
47844;SDS011;33605;48.822;8.796;2023-05-17T05:26:52;6.97;;;2.43;;
47844;SDS011;33605;48.822;8.796;2023-05-17T05:29:18;4.50;;;2.73;;
47844;SDS011;33605;48.822;8.796;2023-05-17T05:31:43;3.53;;;2.10;;
47844;SDS011;33605;48.822;8.796;2023-05-17T05:34:09;5.43;;;2.60;;
47844;SDS011;33605;48.822;8.796;2023-05-17T05:36:35;8.60;;;3.00;;
47844;SDS011;33605;48.822;8.796;2023-05-17T05:39:00;4.77;;;2.63;;
47844;SDS011;33605;48.822;8.796;2023-05-17T05:41:26;4.67;;;2.90;;
47844;SDS011;33605;48.822;8.796;2023-05-17T05:43:52;7.63;;;2.97;;
47844;SDS011;33605;48.822;8.796;2023-05-17T05:46:17;5.13;;;2.50;;
47844;SDS011;33605;48.822;8.796;2023-05-17T05:48:43;2.30;;;2.10;;
47844;SDS011;33605;48.822;8.796;2023-05-17T05:51:09;3.60;;;2.73;;
47844;SDS011;33605;48.822;8.796;2023-05-17T05:53:34;6.30;;;2.70;;
47844;SDS011;33605;48.822;8.796;2023-05-17T05:56:00;6.53;;;3.17;;
47844;SDS011;33605;48.822;8.796;2023-05-17T05:58:27;4.43;;;2.60;;
47844;SDS011;33605;48.822;8.796;2023-05-17T06:00:53;5.93;;;3.00;;
47844;SDS011;33605;48.822;8.796;2023-05-17T06:03:19;8.23;;;2.60;;
47844;SDS011;33605;48.822;8.796;2023-05-17T06:05:45;7.47;;;3.87;;
47844;SDS011;33605;48.822;8.796;2023-05-17T06:08:11;4.03;;;3.10;;
47844;SDS011;33605;48.822;8.796;2023-05-17T06:10:37;4.80;;;3.13;;
47844;SDS011;33605;48.822;8.796;2023-05-17T06:13:03;4.67;;;3.00;;
47844;SDS011;33605;48.822;8.796;2023-05-17T06:15:30;5.00;;;2.70;;
47844;SDS011;33605;48.822;8.796;2023-05-17T06:17:56;5.10;;;3.20;;
47844;SDS011;33605;48.822;8.796;2023-05-17T06:20:22;5.27;;;3.37;;
47844;SDS011;33605;48.822;8.796;2023-05-17T06:22:48;5.23;;;2.80;;
47844;SDS011;33605;48.822;8.796;2023-05-17T06:25:14;4.43;;;2.80;;
47844;SDS011;33605;48.822;8.796;2023-05-17T06:27:40;4.43;;;3.10;;
47844;SDS011;33605;48.822;8.796;2023-05-17T06:30:06;5.50;;;2.77;;
47844;SDS011;33605;48.822;8.796;2023-05-17T06:32:33;3.77;;;2.60;;
47844;SDS011;33605;48.822;8.796;2023-05-17T06:34:59;5.63;;;2.87;;
47844;SDS011;33605;48.822;8.796;2023-05-17T06:37:25;4.00;;;2.93;;
47844;SDS011;33605;48.822;8.796;2023-05-17T06:39:51;8.53;;;2.93;;
47844;SDS011;33605;48.822;8.796;2023-05-17T06:42:18;4.30;;;2.50;;
47844;SDS011;33605;48.822;8.796;2023-05-17T06:44:44;7.17;;;2.50;;
47844;SDS011;33605;48.822;8.796;2023-05-17T06:47:10;3.43;;;2.77;;
47844;SDS011;33605;48.822;8.796;2023-05-17T06:49:36;2.90;;;2.50;;
47844;SDS011;33605;48.822;8.796;2023-05-17T06:52:02;9.37;;;3.27;;
47844;SDS011;33605;48.822;8.796;2023-05-17T06:54:29;4.50;;;3.10;;
47844;SDS011;33605;48.822;8.796;2023-05-17T06:56:59;4.13;;;2.87;;
47844;SDS011;33605;48.822;8.796;2023-05-17T06:59:25;7.50;;;2.70;;
47844;SDS011;33605;48.822;8.796;2023-05-17T07:01:51;3.30;;;3.00;;
47844;SDS011;33605;48.822;8.796;2023-05-17T07:04:17;4.00;;;2.73;;
47844;SDS011;33605;48.822;8.796;2023-05-17T07:06:43;3.73;;;3.20;;
47844;SDS011;33605;48.822;8.796;2023-05-17T07:09:09;6.60;;;3.23;;
47844;SDS011;33605;48.822;8.796;2023-05-17T07:11:35;4.97;;;3.00;;
47844;SDS011;33605;48.822;8.796;2023-05-17T07:14:01;5.20;;;3.10;;
47844;SDS011;33605;48.822;8.796;2023-05-17T07:16:27;9.57;;;3.80;;
47844;SDS011;33605;48.822;8.796;2023-05-17T07:18:53;6.13;;;3.53;;
47844;SDS011;33605;48.822;8.796;2023-05-17T07:21:20;4.30;;;3.10;;
47844;SDS011;33605;48.822;8.796;2023-05-17T07:23:47;5.03;;;3.13;;
47844;SDS011;33605;48.822;8.796;2023-05-17T07:26:13;5.57;;;3.10;;
47844;SDS011;33605;48.822;8.796;2023-05-17T07:28:39;4.77;;;3.67;;
47844;SDS011;33605;48.822;8.796;2023-05-17T07:31:05;4.43;;;3.00;;
47844;SDS011;33605;48.822;8.796;2023-05-17T07:33:31;4.57;;;3.30;;
47844;SDS011;33605;48.822;8.796;2023-05-17T07:35:57;5.30;;;3.50;;
47844;SDS011;33605;48.822;8.796;2023-05-17T07:38:23;6.50;;;3.37;;
47844;SDS011;33605;48.822;8.796;2023-05-17T07:40:49;3.83;;;2.70;;
47844;SDS011;33605;48.822;8.796;2023-05-17T07:43:15;4.30;;;3.37;;
47844;SDS011;33605;48.822;8.796;2023-05-17T07:45:42;4.80;;;3.30;;
47844;SDS011;33605;48.822;8.796;2023-05-17T07:48:08;5.73;;;3.33;;
47844;SDS011;33605;48.822;8.796;2023-05-17T07:50:34;6.47;;;3.13;;
47844;SDS011;33605;48.822;8.796;2023-05-17T07:53:00;4.43;;;3.00;;
47844;SDS011;33605;48.822;8.796;2023-05-17T07:55:26;4.67;;;3.70;;
47844;SDS011;33605;48.822;8.796;2023-05-17T07:57:52;5.27;;;3.00;;
47844;SDS011;33605;48.822;8.796;2023-05-17T08:00:18;7.20;;;3.50;;
47844;SDS011;33605;48.822;8.796;2023-05-17T08:02:44;7.73;;;3.03;;
47844;SDS011;33605;48.822;8.796;2023-05-17T08:05:10;6.73;;;3.33;;
47844;SDS011;33605;48.822;8.796;2023-05-17T08:07:37;7.57;;;3.67;;
47844;SDS011;33605;48.822;8.796;2023-05-17T08:10:03;2.57;;;2.37;;
47844;SDS011;33605;48.822;8.796;2023-05-17T08:12:29;6.33;;;2.87;;
47844;SDS011;33605;48.822;8.796;2023-05-17T08:14:55;9.43;;;3.53;;
47844;SDS011;33605;48.822;8.796;2023-05-17T08:17:21;4.07;;;3.10;;
47844;SDS011;33605;48.822;8.796;2023-05-17T08:19:47;4.00;;;3.53;;
47844;SDS011;33605;48.822;8.796;2023-05-17T08:22:14;4.07;;;2.80;;
47844;SDS011;33605;48.822;8.796;2023-05-17T08:24:40;3.37;;;2.70;;
47844;SDS011;33605;48.822;8.796;2023-05-17T08:27:05;4.13;;;2.77;;
47844;SDS011;33605;48.822;8.796;2023-05-17T08:29:32;6.53;;;3.63;;
47844;SDS011;33605;48.822;8.796;2023-05-17T08:31:58;4.73;;;2.80;;
47844;SDS011;33605;48.822;8.796;2023-05-17T08:34:24;3.00;;;2.17;;
47844;SDS011;33605;48.822;8.796;2023-05-17T08:36:50;5.00;;;2.90;;
47844;SDS011;33605;48.822;8.796;2023-05-17T08:39:17;3.50;;;2.97;;
47844;SDS011;33605;48.822;8.796;2023-05-17T08:41:45;3.40;;;2.57;;
47844;SDS011;33605;48.822;8.796;2023-05-17T08:44:11;4.93;;;2.63;;
47844;SDS011;33605;48.822;8.796;2023-05-17T08:46:40;4.40;;;2.93;;
47844;SDS011;33605;48.822;8.796;2023-05-17T08:49:08;6.27;;;3.00;;
47844;SDS011;33605;48.822;8.796;2023-05-17T08:51:36;3.33;;;2.60;;
47844;SDS011;33605;48.822;8.796;2023-05-17T08:54:03;7.17;;;2.70;;
47844;SDS011;33605;48.822;8.796;2023-05-17T08:56:30;5.93;;;2.87;;
47844;SDS011;33605;48.822;8.796;2023-05-17T08:58:59;11.10;;;3.60;;
47844;SDS011;33605;48.822;8.796;2023-05-17T09:01:26;5.43;;;3.00;;
47844;SDS011;33605;48.822;8.796;2023-05-17T09:03:53;6.70;;;2.90;;
47844;SDS011;33605;48.822;8.796;2023-05-17T09:06:20;3.80;;;2.63;;
47844;SDS011;33605;48.822;8.796;2023-05-17T09:08:46;8.70;;;3.13;;
47844;SDS011;33605;48.822;8.796;2023-05-17T09:11:21;7.10;;;3.57;;
47844;SDS011;33605;48.822;8.796;2023-05-17T09:13:48;3.40;;;2.40;;
47844;SDS011;33605;48.822;8.796;2023-05-17T09:16:15;6.33;;;4.77;;
47844;SDS011;33605;48.822;8.796;2023-05-17T09:18:41;5.10;;;2.80;;
47844;SDS011;33605;48.822;8.796;2023-05-17T09:21:07;6.83;;;3.53;;
47844;SDS011;33605;48.822;8.796;2023-05-17T09:23:36;4.83;;;2.83;;
47844;SDS011;33605;48.822;8.796;2023-05-17T09:26:05;5.13;;;3.20;;
47844;SDS011;33605;48.822;8.796;2023-05-17T09:28:41;3.90;;;3.07;;
47844;SDS011;33605;48.822;8.796;2023-05-17T09:31:08;4.83;;;2.70;;
47844;SDS011;33605;48.822;8.796;2023-05-17T09:33:41;4.37;;;2.60;;
47844;SDS011;33605;48.822;8.796;2023-05-17T09:36:14;5.80;;;3.63;;
47844;SDS011;33605;48.822;8.796;2023-05-17T09:38:41;7.00;;;3.63;;
47844;SDS011;33605;48.822;8.796;2023-05-17T09:41:07;3.50;;;3.10;;
47844;SDS011;33605;48.822;8.796;2023-05-17T09:43:33;6.50;;;3.17;;
47844;SDS011;33605;48.822;8.796;2023-05-17T09:45:59;4.70;;;2.67;;
47844;SDS011;33605;48.822;8.796;2023-05-17T09:48:25;6.20;;;3.33;;
47844;SDS011;33605;48.822;8.796;2023-05-17T09:50:52;4.50;;;3.00;;
47844;SDS011;33605;48.822;8.796;2023-05-17T09:55:48;5.30;;;3.00;;
47844;SDS011;33605;48.822;8.796;2023-05-17T09:58:14;4.93;;;2.70;;
47844;SDS011;33605;48.822;8.796;2023-05-17T10:00:40;4.33;;;3.20;;
47844;SDS011;33605;48.822;8.796;2023-05-17T10:03:08;5.47;;;3.50;;
47844;SDS011;33605;48.822;8.796;2023-05-17T10:05:35;4.67;;;3.17;;
47844;SDS011;33605;48.822;8.796;2023-05-17T10:08:02;6.43;;;3.50;;
47844;SDS011;33605;48.822;8.796;2023-05-17T10:10:29;6.97;;;3.90;;
47844;SDS011;33605;48.822;8.796;2023-05-17T10:12:56;7.37;;;3.37;;
47844;SDS011;33605;48.822;8.796;2023-05-17T10:15:23;5.70;;;3.53;;
47844;SDS011;33605;48.822;8.796;2023-05-17T10:17:49;4.03;;;3.03;;
47844;SDS011;33605;48.822;8.796;2023-05-17T10:20:16;6.97;;;3.43;;
47844;SDS011;33605;48.822;8.796;2023-05-17T10:22:42;5.77;;;3.47;;
47844;SDS011;33605;48.822;8.796;2023-05-17T10:25:08;6.83;;;3.70;;
47844;SDS011;33605;48.822;8.796;2023-05-17T10:27:35;9.70;;;4.10;;
47844;SDS011;33605;48.822;8.796;2023-05-17T10:30:01;4.50;;;3.13;;
47844;SDS011;33605;48.822;8.796;2023-05-17T10:32:27;10.63;;;4.17;;
47844;SDS011;33605;48.822;8.796;2023-05-17T10:34:53;5.13;;;3.80;;
47844;SDS011;33605;48.822;8.796;2023-05-17T10:37:20;8.53;;;3.90;;
47844;SDS011;33605;48.822;8.796;2023-05-17T10:39:46;6.77;;;4.23;;
47844;SDS011;33605;48.822;8.796;2023-05-17T10:42:15;6.67;;;3.47;;
47844;SDS011;33605;48.822;8.796;2023-05-17T10:44:42;4.70;;;3.37;;
47844;SDS011;33605;48.822;8.796;2023-05-17T10:47:08;6.27;;;3.60;;
47844;SDS011;33605;48.822;8.796;2023-05-17T10:49:36;5.67;;;3.73;;
47844;SDS011;33605;48.822;8.796;2023-05-17T10:52:15;9.70;;;4.30;;
47844;SDS011;33605;48.822;8.796;2023-05-17T10:54:42;6.90;;;3.87;;
47844;SDS011;33605;48.822;8.796;2023-05-17T10:57:17;6.73;;;3.10;;
47844;SDS011;33605;48.822;8.796;2023-05-17T10:59:54;5.97;;;3.40;;
47844;SDS011;33605;48.822;8.796;2023-05-17T11:02:22;5.50;;;3.77;;
47844;SDS011;33605;48.822;8.796;2023-05-17T11:04:49;8.60;;;4.10;;
47844;SDS011;33605;48.822;8.796;2023-05-17T11:12:40;9.53;;;4.73;;
47844;SDS011;33605;48.822;8.796;2023-05-17T11:20:11;6.13;;;3.53;;
47844;SDS011;33605;48.822;8.796;2023-05-17T11:22:54;4.57;;;3.30;;
47844;SDS011;33605;48.822;8.796;2023-05-17T11:25:22;4.90;;;3.60;;
47844;SDS011;33605;48.822;8.796;2023-05-17T11:27:49;5.93;;;3.73;;
47844;SDS011;33605;48.822;8.796;2023-05-17T11:32:50;6.53;;;3.67;;
47844;SDS011;33605;48.822;8.796;2023-05-17T11:35:16;4.90;;;3.73;;
47844;SDS011;33605;48.822;8.796;2023-05-17T11:37:43;6.70;;;3.67;;
47844;SDS011;33605;48.822;8.796;2023-05-17T11:40:09;6.20;;;3.33;;
47844;SDS011;33605;48.822;8.796;2023-05-17T11:42:37;6.80;;;3.53;;
47844;SDS011;33605;48.822;8.796;2023-05-17T11:45:03;5.90;;;3.43;;
47844;SDS011;33605;48.822;8.796;2023-05-17T11:47:30;4.67;;;3.20;;
47844;SDS011;33605;48.822;8.796;2023-05-17T11:49:59;6.73;;;3.43;;
47844;SDS011;33605;48.822;8.796;2023-05-17T11:52:26;5.83;;;3.27;;
47844;SDS011;33605;48.822;8.796;2023-05-17T11:54:52;20.53;;;4.23;;
47844;SDS011;33605;48.822;8.796;2023-05-17T11:57:18;7.57;;;3.53;;
47844;SDS011;33605;48.822;8.796;2023-05-17T11:59:46;5.80;;;3.17;;
47844;SDS011;33605;48.822;8.796;2023-05-17T12:02:26;5.97;;;3.53;;
47844;SDS011;33605;48.822;8.796;2023-05-17T12:04:52;4.13;;;3.00;;
47844;SDS011;33605;48.822;8.796;2023-05-17T12:07:18;4.83;;;3.43;;
47844;SDS011;33605;48.822;8.796;2023-05-17T12:09:44;6.30;;;3.43;;
47844;SDS011;33605;48.822;8.796;2023-05-17T12:12:10;4.47;;;3.33;;
47844;SDS011;33605;48.822;8.796;2023-05-17T12:14:36;21.03;;;4.43;;
47844;SDS011;33605;48.822;8.796;2023-05-17T12:17:04;4.43;;;3.23;;
47844;SDS011;33605;48.822;8.796;2023-05-17T12:19:31;5.60;;;3.00;;
47844;SDS011;33605;48.822;8.796;2023-05-17T12:22:07;4.60;;;3.27;;
47844;SDS011;33605;48.822;8.796;2023-05-17T12:24:40;4.30;;;3.20;;
47844;SDS011;33605;48.822;8.796;2023-05-17T12:27:06;3.73;;;3.00;;
47844;SDS011;33605;48.822;8.796;2023-05-17T12:29:33;6.90;;;3.40;;
47844;SDS011;33605;48.822;8.796;2023-05-17T12:31:59;4.00;;;3.10;;
47844;SDS011;33605;48.822;8.796;2023-05-17T12:34:26;7.63;;;3.40;;
47844;SDS011;33605;48.822;8.796;2023-05-17T12:36:52;7.13;;;3.20;;
47844;SDS011;33605;48.822;8.796;2023-05-17T12:39:18;4.77;;;3.00;;
47844;SDS011;33605;48.822;8.796;2023-05-17T12:41:48;7.60;;;3.50;;
47844;SDS011;33605;48.822;8.796;2023-05-17T12:44:20;3.83;;;3.00;;
47844;SDS011;33605;48.822;8.796;2023-05-17T12:46:47;4.97;;;2.60;;
47844;SDS011;33605;48.822;8.796;2023-05-17T12:49:21;136.07;;;17.83;;
47844;SDS011;33605;48.822;8.796;2023-05-17T12:51:47;6.37;;;3.33;;
47844;SDS011;33605;48.822;8.796;2023-05-17T12:54:34;5.50;;;3.33;;
47844;SDS011;33605;48.822;8.796;2023-05-17T12:57:09;5.30;;;3.50;;
47844;SDS011;33605;48.822;8.796;2023-05-17T12:59:44;23.97;;;5.20;;
47844;SDS011;33605;48.822;8.796;2023-05-17T13:02:10;5.87;;;3.27;;
47844;SDS011;33605;48.822;8.796;2023-05-17T13:04:36;3.37;;;2.90;;
47844;SDS011;33605;48.822;8.796;2023-05-17T13:07:03;4.70;;;3.33;;
47844;SDS011;33605;48.822;8.796;2023-05-17T13:09:30;8.10;;;3.83;;
47844;SDS011;33605;48.822;8.796;2023-05-17T13:12:00;5.70;;;3.27;;
47844;SDS011;33605;48.822;8.796;2023-05-17T13:14:39;13.77;;;5.30;;
47844;SDS011;33605;48.822;8.796;2023-05-17T13:17:06;5.97;;;3.27;;
47844;SDS011;33605;48.822;8.796;2023-05-17T13:19:33;12.53;;;3.83;;
47844;SDS011;33605;48.822;8.796;2023-05-17T13:22:00;5.40;;;3.00;;
47844;SDS011;33605;48.822;8.796;2023-05-17T13:24:26;4.93;;;2.80;;
47844;SDS011;33605;48.822;8.796;2023-05-17T13:26:52;11.97;;;3.53;;
47844;SDS011;33605;48.822;8.796;2023-05-17T13:29:18;4.23;;;3.40;;
47844;SDS011;33605;48.822;8.796;2023-05-17T13:31:44;7.50;;;3.60;;
47844;SDS011;33605;48.822;8.796;2023-05-17T13:34:11;10.03;;;3.90;;
47844;SDS011;33605;48.822;8.796;2023-05-17T13:36:37;6.00;;;3.43;;
47844;SDS011;33605;48.822;8.796;2023-05-17T13:39:04;8.73;;;3.80;;
47844;SDS011;33605;48.822;8.796;2023-05-17T13:41:30;5.60;;;2.83;;
47844;SDS011;33605;48.822;8.796;2023-05-17T13:43:56;6.33;;;3.90;;
47844;SDS011;33605;48.822;8.796;2023-05-17T13:46:22;5.50;;;4.07;;
47844;SDS011;33605;48.822;8.796;2023-05-17T13:48:48;5.40;;;3.73;;
47844;SDS011;33605;48.822;8.796;2023-05-17T13:51:14;9.63;;;6.70;;
47844;SDS011;33605;48.822;8.796;2023-05-17T13:53:40;8.90;;;4.30;;
47844;SDS011;33605;48.822;8.796;2023-05-17T13:56:08;6.67;;;3.33;;
47844;SDS011;33605;48.822;8.796;2023-05-17T13:58:33;5.93;;;3.27;;
47844;SDS011;33605;48.822;8.796;2023-05-17T14:00:59;5.63;;;3.70;;
47844;SDS011;33605;48.822;8.796;2023-05-17T14:03:26;5.90;;;3.40;;
47844;SDS011;33605;48.822;8.796;2023-05-17T14:05:52;21.80;;;4.90;;
47844;SDS011;33605;48.822;8.796;2023-05-17T14:08:18;4.43;;;3.37;;
47844;SDS011;33605;48.822;8.796;2023-05-17T14:10:45;4.03;;;3.10;;
47844;SDS011;33605;48.822;8.796;2023-05-17T14:13:11;8.33;;;4.57;;
47844;SDS011;33605;48.822;8.796;2023-05-17T14:15:37;6.10;;;3.50;;
47844;SDS011;33605;48.822;8.796;2023-05-17T14:18:08;7.47;;;3.40;;
47844;SDS011;33605;48.822;8.796;2023-05-17T14:20:34;5.10;;;3.40;;
47844;SDS011;33605;48.822;8.796;2023-05-17T14:23:00;4.57;;;3.87;;
47844;SDS011;33605;48.822;8.796;2023-05-17T14:25:26;4.90;;;3.90;;
47844;SDS011;33605;48.822;8.796;2023-05-17T14:27:52;5.33;;;3.30;;
47844;SDS011;33605;48.822;8.796;2023-05-17T14:30:19;3.80;;;3.20;;
47844;SDS011;33605;48.822;8.796;2023-05-17T14:32:45;5.70;;;3.37;;
47844;SDS011;33605;48.822;8.796;2023-05-17T14:35:11;12.57;;;6.80;;
47844;SDS011;33605;48.822;8.796;2023-05-17T14:37:37;8.20;;;5.83;;
47844;SDS011;33605;48.822;8.796;2023-05-17T14:40:04;9.33;;;5.43;;
47844;SDS011;33605;48.822;8.796;2023-05-17T14:42:30;5.00;;;3.90;;
47844;SDS011;33605;48.822;8.796;2023-05-17T14:44:56;6.40;;;4.60;;
47844;SDS011;33605;48.822;8.796;2023-05-17T14:47:25;7.57;;;3.40;;
47844;SDS011;33605;48.822;8.796;2023-05-17T14:49:51;4.23;;;3.33;;
47844;SDS011;33605;48.822;8.796;2023-05-17T14:52:17;6.93;;;4.10;;
47844;SDS011;33605;48.822;8.796;2023-05-17T14:54:43;4.17;;;3.17;;
47844;SDS011;33605;48.822;8.796;2023-05-17T14:57:09;5.37;;;4.00;;
47844;SDS011;33605;48.822;8.796;2023-05-17T14:59:36;6.70;;;3.93;;
47844;SDS011;33605;48.822;8.796;2023-05-17T15:02:02;6.70;;;3.63;;
47844;SDS011;33605;48.822;8.796;2023-05-17T15:04:29;6.13;;;3.80;;
47844;SDS011;33605;48.822;8.796;2023-05-17T15:06:55;8.40;;;4.40;;
47844;SDS011;33605;48.822;8.796;2023-05-17T15:09:21;4.40;;;3.43;;